NTAA/PPT METAR and TAF weather

Enter ICAO airport designator
Station Type Date Time Source
NTAA METAR 2020/04/05 23:00 UTC NOAA

NTAA 052300Z AUTO 06012KT 9999 FEW066/// 32/24 Q1011 NOSIG


Station Type Date Time Source
NTAA Decoded METAR 2020/04/05 23:00 UTC NOAA

Tahiti-Faaa, French Polynesia (NTAA) 17-33S 149-37W 2M
Apr 05, 2020 - 07:00 PM EDT / 2020.04.05 2300 UTC
Wind: from the ENE (060 degrees) at 14 MPH (12 KT):0
Visibility: greater than 7 mile(s):0
Sky conditions: mostly clear
Temperature: 89 F (32 C)
Heat index: 98.4 F (36.9 C):1
Dew Point: 75 F (24 C)
Relative Humidity: 62%
Pressure (altimeter): 29.85 in. Hg (1011 hPa)
ob: NTAA 052300Z AUTO 06012KT 9999 FEW066/// 32/24 Q1011 NOSIG
cycle: 23

Station Type Date Time Source
NTAA TAF 2020/04/05 18:41 UTC NOAA

TAF NTAA 051700Z 0518/0624 05012KT 9999 FEW023
BECMG 0602/0604 VRB03KT

Example: see airport list